Terminal Aerodrome Forecast
Issued by NWS

Home | Current Version | Previous Version | Graphics & Text | Print | Product List | Glossary On
Versions: 1 2 3 4 5 6 7 8 9 10 11 12 13 14 15 16 17 18 19 20 21
000
FTUS43 KBIS 182300
TAFMOT
TAF
KMOT 182337Z 1900/1924 30009KT P6SM SCT070
     FM190200 29005KT P6SM SKC
     FM190800 26004KT P6SM SKC
     FM191900 20005KT P6SM FEW070=

USA.gov is the U.S. government's official web portal to all federal, state and local government web resources and services.